首页
METAR-TAF:

METAR-TAF

机场 :

诺加利斯, 亞利桑那州, 美国

纬度: 31-25-15N, 经度: 110-50-45W, 海拔: 1198米

当前天气观测

该预报发布于16分钟前的05:54 UTC
风速4节,风向东南
温度 23°C
湿度 36%
气压 1016 hPa
能見度: 16.1公里
天空无云

METAR: KOLS 170554Z AUTO 14004KT 10SM CLR 23/07 A2999 RMK AO2 SLP083 T02280067 10289 20228 52006

时间: 23:10 (06:10 UTC)

预报

该预报发布于50分钟前的05:20 UTC
预报有效从17日的 06点(UTC)到 18日的 06点(UTC)
风速11节,风向,有时为18节阵风
能見度: 10公里
多云层高于25000英尺
从 17日的 1700点(UTC)
风速7节,风向
能見度: 10公里
多云层高于25000英尺
从 17日的 2000点(UTC)
风速12节,风向南转西南,有时为20节阵风
能見度: 10公里
散云层高于7000英尺
散云层高于25000英尺
从 18日的 0200点(UTC)
风速6节,风向
能見度: 10公里
少量云层高于9000英尺

TAF: KOLS 170520Z 1706/1806 10011G18KT P6SM BKN250 FM171700 17007KT P6SM BKN250 FM172000 21012G20KT P6SM SCT070 SCT250 FM180200 17006KT P6SM FEW090

超过4000个机场的气象观测和天气预报(METAR&TAF报告)。

可查询的气象台以黄色和红色小点在地图上表示。

将鼠标移到小点上方,可查看气象台名称。

然后点击查看天气观测和预报。

如需切换地图:点击带黑十字的绿色按钮放大地图;点击带横线的绿色按钮缩小地图;或者点击绿色箭头查看邻近地区的地图。


METAR-TAF: